Aviation Digital Data Service (ADDS)

Output produced by METARs form (1800 UTC 02 December 2016)
found at http://aviationweather.gov/adds/metars/
 
KPNE 021730Z 0218/0318 29015G23KT P6SM FEW045 BKN250 
     FM030000 28010G17KT P6SM FEW040 
     FM030900 29010KT P6SM BKN035 
     FM031400 31016G28KT P6SM BKN040